Campbell, California
Current Conditions -  °F | °C
As of 1:53 PM on Monday 22 Dec 2014 (Local Time) from KSJC Reporting Station
Broken Clouds Broken Clouds  
Wind Chill: 62°   Ceiling: 1700
Heat Index: 62°   Visibility: 10mi
Dew Point: 54°   Wind: 8mph
Humidity: 75%   Direction: 310°NW
Pressure: 30.19"   Gusts: NA
Location:  37.29°N, 121.94°W
Report Text: KSJC 222153Z 31007KT 10SM FEW014 BKN017 BKN028 17/12 A3019 RMK AO2 SLP224 T01670122
Loading
Personal Weather Stations






























Interactive Weather Map New forecast layout! Learn more

10-Day Weather Forecast

Advertisements
Track Severe Weather on mobile